Time;durP1;ratioP1;P1;durP2;ratioP2;P2;SDS_P1;SDS_P2;PMS_P1;PMS_P2;Temp;Humidity;BMP_temperature;BMP_pressure;BME280_temperature;BME280_humidity;BME280_pressure;Samples;Min_cycle;Max_cycle;Signal;HPM_P1;HPM_P2
2023/04/13 00:01:59;;;;;;;1.48;0.60;;;9.90;99.90;;;;;;4400052;32;20106;-76
2023/04/13 00:04:25;;;;;;;0.50;0.50;;;9.90;99.90;;;;;;4402301;32;20082;-76
2023/04/13 00:06:51;;;;;;;0.37;0.37;;;9.90;99.90;;;;;;4402302;32;20549;-76
2023/04/13 00:09:17;;;;;;;0.40;0.40;;;9.80;99.90;;;;;;4402415;32;20069;-76
2023/04/13 00:11:45;;;;;;;0.40;0.40;;;9.70;99.90;;;;;;4404879;32;20076;-76
2023/04/13 00:14:11;;;;;;;0.30;0.30;;;9.70;99.90;;;;;;4403398;32;20062;-76
2023/04/13 00:16:37;;;;;;;0.50;0.50;;;9.60;99.90;;;;;;4400047;32;20147;-75
2023/04/13 00:19:03;;;;;;;0.77;0.77;;;9.50;99.90;;;;;;4400135;32;20789;-76
2023/04/13 00:21:28;;;;;;;1.48;0.70;;;9.40;99.90;;;;;;4401191;32;20089;-76
2023/04/13 00:23:54;;;;;;;0.60;0.60;;;9.30;99.90;;;;;;4401660;32;20134;-76
2023/04/13 00:26:21;;;;;;;0.37;0.37;;;9.30;99.90;;;;;;4397867;32;20572;-75
2023/04/13 00:28:47;;;;;;;0.35;0.35;;;9.30;99.90;;;;;;4399030;32;20090;-76
2023/04/13 00:31:13;;;;;;;0.30;0.30;;;9.30;99.90;;;;;;4401512;32;20081;-76
2023/04/13 00:33:38;;;;;;;0.43;0.43;;;9.30;99.90;;;;;;4401395;32;20125;-77
2023/04/13 00:36:05;;;;;;;0.82;0.80;;;9.30;99.90;;;;;;4401065;32;20062;-77
2023/04/13 00:38:30;;;;;;;0.30;0.30;;;9.30;99.90;;;;;;4399075;32;20558;-75
2023/04/13 00:40:56;;;;;;;0.75;0.75;;;9.30;99.90;;;;;;4400987;32;20131;-76
2023/04/13 00:43:22;;;;;;;0.45;0.45;;;9.30;99.90;;;;;;4402333;32;20117;-75
2023/04/13 00:45:48;;;;;;;0.45;0.45;;;9.30;99.90;;;;;;4401301;32;20098;-75
2023/04/13 00:48:14;;;;;;;1.40;0.70;;;9.30;99.90;;;;;;4401935;32;20762;-75
2023/04/13 00:50:41;;;;;;;0.35;0.35;;;9.30;99.90;;;;;;4400125;32;20069;-75
2023/04/13 00:53:07;;;;;;;0.60;0.60;;;9.30;99.90;;;;;;4402815;32;20541;-75
2023/04/13 00:55:37;;;;;;;0.60;0.60;;;9.20;99.90;;;;;;4403254;32;20173;-75
2023/04/13 00:58:02;;;;;;;0.75;0.75;;;9.30;99.90;;;;;;4400583;32;20069;-74
2023/04/13 01:00:28;;;;;;;0.40;0.40;;;9.20;99.90;;;;;;4402013;32;20074;-75
2023/04/13 01:02:54;;;;;;;0.30;0.30;;;9.20;99.90;;;;;;4402195;32;20850;-75
2023/04/13 01:05:20;;;;;;;0.40;0.40;;;9.10;99.90;;;;;;4403966;32;20093;-76
2023/04/13 01:07:48;;;;;;;1.08;0.70;;;9.00;99.90;;;;;;4400221;32;20071;-75
2023/04/13 01:10:38;;;;;;;0.43;0.43;;;9.00;99.90;;;;;;4398992;32;20081;-75
2023/04/13 01:13:17;;;;;;;0.70;0.70;;;9.00;99.90;;;;;;4389373;32;20153;-76
2023/04/13 01:15:52;;;;;;;0.30;0.30;;;8.90;99.90;;;;;;4399741;32;20087;-76
2023/04/13 01:18:19;;;;;;;0.50;0.50;;;8.80;99.90;;;;;;4398416;32;20082;-77
2023/04/13 01:20:47;;;;;;;0.43;0.43;;;8.80;99.90;;;;;;4402441;32;20498;-77
2023/04/13 01:23:39;;;;;;;0.60;0.60;;;8.80;99.90;;;;;;4402564;32;20546;-76
2023/04/13 01:26:05;;;;;;;0.40;0.40;;;8.90;99.90;;;;;;4402709;32;20100;-77
2023/04/13 01:28:33;;;;;;;0.50;0.50;;;8.80;99.90;;;;;;4403273;32;20073;-77
2023/04/13 01:31:00;;;;;;;0.60;0.60;;;8.90;99.90;;;;;;4402925;32;20557;-77
2023/04/13 01:33:29;;;;;;;0.40;0.40;;;8.90;99.90;;;;;;4402974;32;20156;-77
2023/04/13 01:35:55;;;;;;;2.17;0.82;;;8.80;99.90;;;;;;4402875;32;20086;-76
2023/04/13 01:38:23;;;;;;;0.85;0.68;;;8.80;99.90;;;;;;4404799;32;20114;-77
2023/04/13 01:40:49;;;;;;;0.65;0.62;;;8.70;99.90;;;;;;4404425;32;20093;-77
2023/04/13 01:43:14;;;;;;;1.35;0.85;;;8.60;99.90;;;;;;4401645;32;20454;-78
2023/04/13 01:46:08;;;;;;;0.50;0.50;;;8.50;99.90;;;;;;4404796;32;20073;-77
2023/04/13 01:48:44;;;;;;;0.98;0.98;;;8.50;99.90;;;;;;4390835;32;20093;-77
2023/04/13 01:51:18;;;;;;;0.60;0.60;;;8.40;99.90;;;;;;4405487;32;20113;-78
2023/04/13 01:53:49;;;;;;;0.20;0.20;;;8.40;99.90;;;;;;4406696;32;20139;-77
2023/04/13 01:56:18;;;;;;;2.03;1.58;;;8.30;99.90;;;;;;4400552;32;20089;-77
2023/04/13 01:58:46;;;;;;;0.80;0.80;;;8.30;99.90;;;;;;4402783;32;20089;-78
2023/04/13 02:01:11;;;;;;;0.90;0.68;;;8.20;99.90;;;;;;4403438;32;20148;-77
2023/04/13 02:03:37;;;;;;;0.43;0.43;;;8.20;99.90;;;;;;4404658;32;20090;-77
2023/04/13 02:06:03;;;;;;;5.32;0.85;;;8.10;99.90;;;;;;4405908;32;20101;-77
2023/04/13 02:08:33;;;;;;;0.30;0.30;;;8.10;99.90;;;;;;4401757;32;20541;-77
2023/04/13 02:10:59;;;;;;;0.77;0.77;;;8.10;99.90;;;;;;4403592;32;20105;-75
2023/04/13 02:13:25;;;;;;;1.25;1.10;;;8.10;99.90;;;;;;4402035;32;20081;-77
2023/04/13 02:15:51;;;;;;;0.30;0.30;;;8.00;99.90;;;;;;4403502;32;20469;-77
2023/04/13 02:18:17;;;;;;;0.65;0.65;;;8.00;99.90;;;;;;4404506;32;20552;-77
2023/04/13 02:20:42;;;;;;;0.40;0.40;;;8.00;99.90;;;;;;4400418;32;20454;-77
2023/04/13 02:23:10;;;;;;;1.35;0.60;;;8.10;99.90;;;;;;4406084;32;20079;-78
2023/04/13 02:25:36;;;;;;;0.40;0.40;;;8.00;99.90;;;;;;4403867;32;20082;-76
2023/04/13 02:28:02;;;;;;;0.30;0.30;;;8.00;99.90;;;;;;4405291;32;20443;-76
2023/04/13 02:30:27;;;;;;;3.03;1.00;;;7.90;99.90;;;;;;4401966;32;20166;-77
2023/04/13 02:32:54;;;;;;;0.40;0.40;;;8.00;99.90;;;;;;4405228;32;20086;-77
2023/04/13 02:35:20;;;;;;;0.40;0.40;;;7.90;99.90;;;;;;4403091;32;20139;-77
2023/04/13 02:37:47;;;;;;;0.50;0.50;;;8.00;99.90;;;;;;4402553;32;20350;-77
2023/04/13 02:40:13;;;;;;;1.75;1.30;;;8.00;99.90;;;;;;4400991;32;20086;-76
2023/04/13 02:42:38;;;;;;;0.47;0.47;;;7.90;99.90;;;;;;4400237;32;20494;-76
2023/04/13 02:45:06;;;;;;;0.40;0.40;;;7.90;99.90;;;;;;4401204;32;20077;-76
2023/04/13 02:47:32;;;;;;;0.43;0.43;;;7.80;99.90;;;;;;4401666;32;20386;-77
2023/04/13 02:50:00;;;;;;;0.35;0.35;;;7.80;99.90;;;;;;4402555;32;20102;-77
2023/04/13 02:52:26;;;;;;;0.55;0.55;;;7.80;99.90;;;;;;4402930;32;20086;-77
2023/04/13 02:54:53;;;;;;;0.30;0.30;;;7.80;99.90;;;;;;4401115;32;20080;-76
2023/04/13 02:57:19;;;;;;;0.82;0.82;;;7.80;99.90;;;;;;4397342;32;20546;-77
2023/04/13 02:59:45;;;;;;;2.53;0.70;;;7.80;99.90;;;;;;4400453;32;20097;-78
2023/04/13 03:02:12;;;;;;;2.95;0.45;;;7.70;99.90;;;;;;4400565;32;20141;-77
2023/04/13 03:04:37;;;;;;;0.40;0.40;;;7.60;99.90;;;;;;4401207;32;20081;-76
2023/04/13 03:07:04;;;;;;;0.65;0.50;;;7.60;99.90;;;;;;4405296;32;20133;-76
2023/04/13 03:09:30;;;;;;;0.50;0.50;;;7.50;99.90;;;;;;4402615;32;20069;-76
2023/04/13 03:11:55;;;;;;;0.40;0.40;;;7.50;99.90;;;;;;4403701;32;20090;-75
2023/04/13 03:14:21;;;;;;;0.50;0.50;;;7.50;99.90;;;;;;4402227;32;20070;-76
2023/04/13 03:16:47;;;;;;;0.30;0.30;;;7.50;99.90;;;;;;4399832;32;20089;-77
2023/04/13 03:19:14;;;;;;;0.73;0.73;;;7.50;99.90;;;;;;4401740;32;20085;-77
2023/04/13 03:21:40;;;;;;;0.50;0.50;;;7.50;99.90;;;;;;4403743;32;20102;-76
2023/04/13 03:24:06;;;;;;;0.40;0.40;;;7.50;99.90;;;;;;4401262;32;20473;-76
2023/04/13 03:26:31;;;;;;;0.57;0.55;;;7.50;99.90;;;;;;4401701;32;20065;-76
2023/04/13 03:28:57;;;;;;;0.40;0.40;;;7.60;99.90;;;;;;4403871;32;20085;-76
2023/04/13 03:31:22;;;;;;;0.40;0.40;;;7.60;99.90;;;;;;4399848;32;20498;-76
2023/04/13 03:33:49;;;;;;;0.30;0.30;;;7.60;99.90;;;;;;4402385;32;20085;-76
2023/04/13 03:36:15;;;;;;;0.25;0.25;;;7.60;99.90;;;;;;4401986;32;20085;-76
2023/04/13 03:38:40;;;;;;;0.35;0.35;;;7.60;99.90;;;;;;4404732;32;20153;-76
2023/04/13 03:41:06;;;;;;;0.20;0.20;;;7.50;99.90;;;;;;4402274;32;20109;-76
2023/04/13 03:43:32;;;;;;;0.40;0.40;;;7.50;99.90;;;;;;4403738;32;20066;-76
2023/04/13 03:45:57;;;;;;;0.20;0.20;;;7.50;99.90;;;;;;4402610;32;20977;-76
2023/04/13 03:48:23;;;;;;;0.45;0.45;;;7.40;99.90;;;;;;4403354;32;20086;-76
2023/04/13 03:50:48;;;;;;;1.95;0.75;;;7.40;99.90;;;;;;4400968;32;20875;-75
2023/04/13 03:53:14;;;;;;;10.05;1.08;;;7.50;99.90;;;;;;4403942;32;20131;-77
2023/04/13 03:55:39;;;;;;;0.50;0.50;;;7.50;99.90;;;;;;4402467;32;20148;-75
2023/04/13 03:58:06;;;;;;;0.35;0.35;;;7.40;99.90;;;;;;4398845;32;20090;-75
2023/04/13 04:00:31;;;;;;;0.40;0.40;;;7.40;99.90;;;;;;4400502;32;20454;-76
2023/04/13 04:02:57;;;;;;;0.30;0.30;;;7.50;99.90;;;;;;4401453;32;20093;-76
2023/04/13 04:05:22;;;;;;;0.55;0.55;;;7.50;99.90;;;;;;4400765;32;20408;-76
2023/04/13 04:07:47;;;;;;;0.47;0.47;;;7.60;99.90;;;;;;4401105;32;20569;-76
2023/04/13 04:10:13;;;;;;;1.70;0.77;;;7.50;99.90;;;;;;4400769;32;20089;-76
2023/04/13 04:12:38;;;;;;;0.32;0.30;;;7.50;99.90;;;;;;4404474;32;20081;-77
2023/04/13 04:15:04;;;;;;;0.40;0.40;;;7.60;99.90;;;;;;4402699;32;20565;-76
2023/04/13 04:17:30;;;;;;;0.30;0.30;;;7.70;99.90;;;;;;4402412;32;20073;-76
2023/04/13 04:19:56;;;;;;;0.30;0.30;;;7.70;99.90;;;;;;4402477;32;20074;-76
2023/04/13 04:22:28;;;;;;;0.52;0.52;;;7.70;99.90;;;;;;4400967;32;20414;-76
2023/04/13 04:24:57;;;;;;;0.68;0.52;;;7.70;99.90;;;;;;4401252;32;20130;-76
2023/04/13 04:27:25;;;;;;;0.62;0.40;;;7.70;99.90;;;;;;4403503;32;20501;-76
2023/04/13 04:29:52;;;;;;;0.35;0.35;;;7.50;99.90;;;;;;4400955;32;20089;-76
2023/04/13 04:32:18;;;;;;;0.30;0.30;;;7.30;99.90;;;;;;4402585;32;20096;-76
2023/04/13 04:34:45;;;;;;;0.45;0.45;;;7.30;99.90;;;;;;4399368;32;20185;-76
2023/04/13 04:37:12;;;;;;;0.30;0.30;;;7.20;99.90;;;;;;4401717;32;20074;-76
2023/04/13 04:39:43;;;;;;;6.70;1.23;;;7.20;99.90;;;;;;4403337;32;20095;-76
2023/04/13 04:42:09;;;;;;;0.43;0.43;;;7.20;99.90;;;;;;4400696;32;20094;-76
2023/04/13 04:44:36;;;;;;;0.25;0.25;;;7.30;99.90;;;;;;4404722;32;20339;-76
2023/04/13 04:47:03;;;;;;;0.40;0.40;;;7.40;99.90;;;;;;4405371;32;20397;-76
2023/04/13 04:49:29;;;;;;;0.40;0.40;;;7.40;99.90;;;;;;4403761;32;20085;-76
2023/04/13 04:51:56;;;;;;;0.40;0.40;;;7.50;99.90;;;;;;4404822;32;20085;-76
2023/04/13 04:54:22;;;;;;;0.85;0.75;;;7.50;99.90;;;;;;4404592;32;20069;-77
2023/04/13 04:56:49;;;;;;;0.30;0.30;;;7.40;99.90;;;;;;4403297;32;20101;-76
2023/04/13 04:59:14;;;;;;;0.50;0.50;;;7.40;99.90;;;;;;4408184;32;20074;-77
2023/04/13 05:01:41;;;;;;;1.98;0.93;;;7.40;99.90;;;;;;4407207;32;20062;-76
2023/04/13 05:04:07;;;;;;;9.20;1.05;;;7.50;99.90;;;;;;4407464;32;20109;-75
2023/04/13 05:06:33;;;;;;;0.47;0.40;;;7.40;99.90;;;;;;4405491;32;20065;-76
2023/04/13 05:09:00;;;;;;;0.50;0.50;;;7.40;99.90;;;;;;4407429;32;20094;-76
2023/04/13 05:11:27;;;;;;;0.50;0.50;;;7.30;99.90;;;;;;4406284;32;20074;-76
2023/04/13 05:13:55;;;;;;;0.30;0.30;;;7.20;99.90;;;;;;4404704;32;20130;-76
2023/04/13 05:16:21;;;;;;;1.08;0.57;;;7.20;99.90;;;;;;4406560;32;20196;-76
2023/04/13 05:18:48;;;;;;;0.40;0.40;;;7.20;99.90;;;;;;4405403;32;20094;-76
2023/04/13 05:21:15;;;;;;;0.47;0.47;;;7.20;99.90;;;;;;4407191;32;20075;-77
2023/04/13 05:23:42;;;;;;;0.45;0.45;;;7.10;99.90;;;;;;4408066;32;20062;-76
2023/04/13 05:26:10;;;;;;;0.80;0.80;;;7.10;99.90;;;;;;4406794;32;20077;-76
2023/04/13 05:28:35;;;;;;;0.47;0.47;;;7.00;99.90;;;;;;4406314;32;20066;-76
2023/04/13 05:31:03;;;;;;;0.65;0.65;;;7.00;99.90;;;;;;4415437;32;20094;-74
2023/04/13 05:33:29;;;;;;;1.95;1.10;;;7.00;99.90;;;;;;4408014;32;20069;-75
2023/04/13 05:35:55;;;;;;;1.70;1.08;;;7.00;99.90;;;;;;4410682;32;20117;-74
2023/04/13 05:38:21;;;;;;;0.40;0.40;;;7.00;99.90;;;;;;4411933;32;20085;-75
2023/04/13 05:40:47;;;;;;;5.82;0.50;;;7.00;99.90;;;;;;4412864;32;20095;-75
2023/04/13 05:43:13;;;;;;;0.50;0.50;;;7.10;99.90;;;;;;4407399;32;20084;-75
2023/04/13 05:45:38;;;;;;;0.60;0.60;;;7.10;99.90;;;;;;4410259;32;20125;-75
2023/04/13 05:48:04;;;;;;;0.52;0.52;;;7.20;99.90;;;;;;4407634;32;20090;-75
2023/04/13 05:50:30;;;;;;;0.47;0.47;;;7.20;99.90;;;;;;4409685;32;20073;-75
2023/04/13 05:52:56;;;;;;;0.40;0.40;;;7.30;99.90;;;;;;4405991;32;20066;-75
2023/04/13 05:55:22;;;;;;;0.40;0.40;;;7.20;99.90;;;;;;4409216;32;20124;-75
2023/04/13 05:57:48;;;;;;;2.40;0.70;;;7.20;99.90;;;;;;4408879;32;20510;-75
2023/04/13 06:00:17;;;;;;;0.65;0.65;;;7.30;99.90;;;;;;4404551;32;20585;-75
2023/04/13 06:02:43;;;;;;;0.70;0.52;;;7.20;99.90;;;;;;4409168;32;20087;-75
2023/04/13 06:05:13;;;;;;;0.43;0.43;;;7.30;99.90;;;;;;4405574;32;20097;-75
2023/04/13 06:07:39;;;;;;;3.12;0.88;;;7.20;99.90;;;;;;4406832;32;20085;-75
2023/04/13 06:10:05;;;;;;;0.50;0.50;;;7.30;99.90;;;;;;4407984;32;20087;-76
2023/04/13 06:12:30;;;;;;;0.45;0.45;;;7.30;99.90;;;;;;4407206;32;20412;-76
2023/04/13 06:14:56;;;;;;;0.50;0.50;;;7.30;99.90;;;;;;4408126;32;20137;-75
2023/04/13 06:17:22;;;;;;;0.50;0.50;;;7.40;99.90;;;;;;4406241;32;20135;-76
2023/04/13 06:19:47;;;;;;;0.75;0.57;;;7.50;99.90;;;;;;4408446;32;20079;-76
2023/04/13 06:22:13;;;;;;;1.02;0.77;;;7.50;99.90;;;;;;4409066;32;20450;-76
2023/04/13 06:24:38;;;;;;;0.40;0.40;;;7.70;99.90;;;;;;4407357;32;20082;-76
2023/04/13 06:27:04;;;;;;;0.40;0.40;;;7.70;99.90;;;;;;4405663;32;20086;-76
2023/04/13 06:29:30;;;;;;;0.73;0.55;;;7.70;99.90;;;;;;4406911;32;20089;-75
2023/04/13 06:31:56;;;;;;;2.40;0.62;;;7.80;99.90;;;;;;4408547;32;20102;-76
2023/04/13 06:34:21;;;;;;;0.40;0.40;;;7.80;99.90;;;;;;4407963;32;20129;-76
2023/04/13 06:36:47;;;;;;;3.40;1.33;;;7.90;99.90;;;;;;4409108;32;20078;-75
2023/04/13 06:39:12;;;;;;;0.40;0.40;;;7.90;99.90;;;;;;4409939;32;20093;-75
2023/04/13 06:41:38;;;;;;;2.35;0.60;;;7.80;99.90;;;;;;4404897;32;20170;-75
2023/04/13 06:44:04;;;;;;;0.25;0.25;;;7.90;99.90;;;;;;4407870;32;20081;-75
2023/04/13 06:46:29;;;;;;;0.88;0.57;;;8.00;99.90;;;;;;4408752;32;20094;-76
2023/04/13 06:48:55;;;;;;;0.60;0.60;;;8.10;99.90;;;;;;4409939;32;20133;-75
2023/04/13 06:51:20;;;;;;;0.40;0.40;;;8.20;99.90;;;;;;4407168;32;20069;-75
2023/04/13 06:53:46;;;;;;;1.37;0.77;;;8.20;99.90;;;;;;4410651;32;20133;-75
2023/04/13 06:56:11;;;;;;;0.70;0.70;;;8.20;99.90;;;;;;4405505;32;20086;-75
2023/04/13 06:58:37;;;;;;;0.30;0.30;;;8.20;99.90;;;;;;4406931;32;20090;-75
2023/04/13 07:01:02;;;;;;;0.30;0.30;;;8.20;99.90;;;;;;4405025;32;20185;-75
2023/04/13 07:03:28;;;;;;;0.40;0.40;;;8.20;99.90;;;;;;4408461;32;20081;-75
2023/04/13 07:05:53;;;;;;;3.03;1.62;;;8.40;99.90;;;;;;4407541;32;20148;-75
2023/04/13 07:08:19;;;;;;;0.30;0.30;;;8.40;99.90;;;;;;4402894;32;20078;-75
2023/04/13 07:10:45;;;;;;;0.40;0.40;;;8.30;99.90;;;;;;4405822;32;20069;-75
2023/04/13 07:13:11;;;;;;;1.17;0.50;;;8.40;99.90;;;;;;4407166;32;20109;-75
2023/04/13 07:15:37;;;;;;;0.47;0.47;;;8.40;99.90;;;;;;4404838;32;20102;-75
2023/04/13 07:18:02;;;;;;;1.12;0.50;;;8.50;99.90;;;;;;4404148;32;20079;-75
2023/04/13 07:20:28;;;;;;;1.45;0.73;;;8.40;99.90;;;;;;4406780;32;20085;-75
2023/04/13 07:22:54;;;;;;;0.50;0.50;;;8.40;99.90;;;;;;4402792;32;20077;-75
2023/04/13 07:25:20;;;;;;;0.50;0.50;;;8.50;99.90;;;;;;4405221;32;20415;-74
2023/04/13 07:27:46;;;;;;;0.40;0.40;;;8.50;99.90;;;;;;4404978;32;20065;-75
2023/04/13 07:30:12;;;;;;;0.40;0.40;;;8.60;99.90;;;;;;4405054;32;20620;-75
2023/04/13 07:32:38;;;;;;;0.45;0.45;;;8.70;99.90;;;;;;4403902;32;20425;-75
2023/04/13 07:35:04;;;;;;;0.40;0.40;;;8.70;99.90;;;;;;4405727;32;20471;-75
2023/04/13 07:37:29;;;;;;;0.30;0.30;;;8.80;99.90;;;;;;4403625;32;20090;-75
2023/04/13 07:39:55;;;;;;;0.60;0.50;;;8.90;99.90;;;;;;4402033;32;20609;-75
2023/04/13 07:42:20;;;;;;;0.30;0.30;;;9.00;99.90;;;;;;4406396;32;20133;-74
2023/04/13 07:44:46;;;;;;;0.50;0.50;;;9.00;99.90;;;;;;4404916;32;20086;-75
2023/04/13 07:47:12;;;;;;;0.50;0.50;;;8.80;99.90;;;;;;4405965;32;20531;-74
2023/04/13 07:49:38;;;;;;;0.40;0.40;;;8.90;99.90;;;;;;4403034;32;20201;-75
2023/04/13 07:52:03;;;;;;;2.35;1.85;;;9.00;99.90;;;;;;4403466;32;20070;-75
2023/04/13 07:54:29;;;;;;;0.68;0.68;;;9.00;99.90;;;;;;4405499;32;20117;-75
2023/04/13 07:56:55;;;;;;;0.40;0.40;;;9.10;99.90;;;;;;4404478;32;20085;-75
2023/04/13 07:59:21;;;;;;;2.83;0.43;;;9.00;99.90;;;;;;4403882;32;20073;-74
2023/04/13 08:01:46;;;;;;;0.68;0.55;;;9.00;99.90;;;;;;4406011;32;20102;-75
2023/04/13 08:04:12;;;;;;;0.20;0.20;;;9.10;99.90;;;;;;4405300;32;20109;-74
2023/04/13 08:06:37;;;;;;;0.40;0.40;;;9.20;99.90;;;;;;4405055;32;20144;-74
2023/04/13 08:09:03;;;;;;;0.30;0.30;;;9.20;99.90;;;;;;4405046;32;20652;-75
2023/04/13 08:11:28;;;;;;;0.30;0.30;;;9.30;99.90;;;;;;4404668;32;20089;-75
2023/04/13 08:13:54;;;;;;;0.82;0.70;;;9.40;99.90;;;;;;4401387;32;20117;-75
2023/04/13 08:16:20;;;;;;;0.50;0.50;;;9.40;99.90;;;;;;4408217;32;20074;-75
2023/04/13 08:18:46;;;;;;;0.30;0.30;;;9.60;99.90;;;;;;4399738;32;20148;-75
2023/04/13 08:21:13;;;;;;;0.73;0.73;;;9.80;99.90;;;;;;4404992;32;20096;-75
2023/04/13 08:23:40;;;;;;;0.30;0.30;;;10.00;99.90;;;;;;4402830;32;20083;-75
2023/04/13 08:26:06;;;;;;;0.20;0.20;;;10.10;99.90;;;;;;4402794;32;20071;-75
2023/04/13 08:28:32;;;;;;;0.20;0.20;;;10.20;99.90;;;;;;4405005;32;20086;-75
2023/04/13 08:30:57;;;;;;;0.40;0.40;;;10.30;99.90;;;;;;4404584;32;20077;-75
2023/04/13 08:33:23;;;;;;;0.20;0.20;;;10.20;99.90;;;;;;4404129;32;20121;-75
2023/04/13 08:35:48;;;;;;;0.30;0.30;;;10.20;99.90;;;;;;4401281;32;20209;-75
2023/04/13 08:38:14;;;;;;;0.20;0.20;;;10.20;99.90;;;;;;4403644;32;20136;-75
2023/04/13 08:40:40;;;;;;;0.30;0.30;;;10.30;99.90;;;;;;4406687;32;20552;-75
2023/04/13 08:43:06;;;;;;;0.40;0.40;;;10.40;99.90;;;;;;4402557;32;20122;-75
2023/04/13 08:45:33;;;;;;;0.30;0.30;;;10.60;99.90;;;;;;4403726;32;20067;-75
2023/04/13 08:48:00;;;;;;;0.30;0.30;;;10.40;99.90;;;;;;4403063;32;20069;-75
2023/04/13 08:50:27;;;;;;;0.30;0.30;;;10.50;99.90;;;;;;4405373;32;20065;-75
2023/04/13 08:52:54;;;;;;;0.30;0.30;;;10.50;99.90;;;;;;4402703;32;20149;-74
2023/04/13 08:55:20;;;;;;;0.30;0.30;;;10.50;99.90;;;;;;4405941;32;20058;-75
2023/04/13 08:57:48;;;;;;;0.43;0.43;;;10.30;99.90;;;;;;4404366;32;20124;-75
2023/04/13 09:00:16;;;;;;;0.20;0.20;;;10.40;99.90;;;;;;4402956;32;20081;-75
2023/04/13 09:02:47;;;;;;;0.30;0.30;;;10.30;99.90;;;;;;4401211;32;20118;-75
2023/04/13 09:05:16;;;;;;;1.50;0.63;;;10.40;99.90;;;;;;4401985;32;20687;-75
2023/04/13 09:07:45;;;;;;;0.28;0.28;;;10.30;99.90;;;;;;4403107;32;20070;-75
2023/04/13 09:10:15;;;;;;;0.30;0.30;;;10.40;99.90;;;;;;4404933;32;20106;-75
2023/04/13 09:12:40;;;;;;;0.20;0.20;;;10.60;99.90;;;;;;4404118;32;20133;-75
2023/04/13 09:15:06;;;;;;;0.25;0.25;;;10.70;99.90;;;;;;4404454;32;20090;-75
2023/04/13 09:17:32;;;;;;;1.02;0.25;;;10.80;99.90;;;;;;4402522;32;20054;-75
2023/04/13 09:20:21;;;;;;;0.30;0.30;;;10.80;99.90;;;;;;4406768;32;20073;-74
2023/04/13 09:22:47;;;;;;;0.30;0.30;;;10.80;99.90;;;;;;4392187;32;20526;-75
2023/04/13 09:25:28;;;;;;;0.30;0.30;;;10.80;99.90;;;;;;4401267;32;20125;-75
2023/04/13 09:27:55;;;;;;;4.95;0.50;;;10.90;99.90;;;;;;4403360;32;20078;-75
2023/04/13 09:30:22;;;;;;;1.85;0.50;;;10.90;99.90;;;;;;4401615;32;20085;-75
2023/04/13 09:33:03;;;;;;;0.30;0.30;;;10.70;99.90;;;;;;4402170;32;20482;-75
2023/04/13 09:35:30;;;;;;;0.30;0.30;;;10.80;99.90;;;;;;4401640;32;20086;-75
2023/04/13 09:37:55;;;;;;;0.30;0.30;;;11.10;99.90;;;;;;4403722;32;20093;-75
2023/04/13 09:40:21;;;;;;;0.30;0.30;;;11.30;99.90;;;;;;4405908;32;20151;-76
2023/04/13 09:42:56;;;;;;;0.30;0.30;;;11.50;99.90;;;;;;4402975;32;20135;-75
2023/04/13 09:45:22;;;;;;;0.35;0.35;;;11.90;99.90;;;;;;4406133;32;20078;-75
2023/04/13 09:47:48;;;;;;;0.40;0.40;;;12.00;99.90;;;;;;4405022;32;20085;-76
2023/04/13 09:50:20;;;;;;;0.40;0.40;;;11.90;99.90;;;;;;4409980;32;20682;-75
2023/04/13 09:52:45;;;;;;;0.37;0.37;;;12.00;99.90;;;;;;4404168;32;20094;-75
2023/04/13 09:55:18;;;;;;;0.50;0.50;;;12.10;99.90;;;;;;4394950;32;20691;-76
2023/04/13 09:57:43;;;;;;;0.30;0.30;;;12.20;99.90;;;;;;4398935;32;20513;-75
2023/04/13 10:00:16;;;;;;;0.20;0.20;;;12.50;99.90;;;;;;4403915;32;20095;-75
2023/04/13 10:02:41;;;;;;;0.28;0.28;;;12.30;99.90;;;;;;4402835;32;20094;-75
2023/04/13 10:05:08;;;;;;;0.30;0.30;;;12.60;99.90;;;;;;4403579;32;20497;-75
2023/04/13 10:07:36;;;;;;;0.30;0.30;;;12.80;99.90;;;;;;4405447;32;20101;-76
2023/04/13 10:10:03;;;;;;;6.45;2.62;;;12.90;99.90;;;;;;4408702;32;20510;-75
2023/04/13 10:12:30;;;;;;;0.30;0.30;;;12.80;99.90;;;;;;4404612;32;20069;-75
2023/04/13 10:15:09;;;;;;;0.30;0.30;;;12.80;99.90;;;;;;4406607;32;20069;-75
2023/04/13 10:18:02;;;;;;;0.40;0.40;;;12.60;99.90;;;;;;4407799;32;20120;-75
2023/04/13 10:20:29;;;;;;;0.30;0.30;;;12.40;99.90;;;;;;4396057;32;20066;-75
2023/04/13 10:22:55;;;;;;;0.30;0.30;;;12.40;99.90;;;;;;4407357;32;20078;-75
2023/04/13 10:25:21;;;;;;;0.62;0.45;;;12.70;99.90;;;;;;4404885;32;20096;-75
2023/04/13 10:27:57;;;;;;;0.47;0.47;;;12.80;99.90;;;;;;4405540;32;20082;-75
2023/04/13 10:30:23;;;;;;;0.30;0.30;;;12.70;99.90;;;;;;4406649;32;20073;-75
2023/04/13 10:32:59;;;;;;;0.40;0.40;;;12.50;99.90;;;;;;4405253;32;20093;-76
2023/04/13 10:35:25;;;;;;;0.40;0.40;;;12.30;99.90;;;;;;4404896;32;20596;-76
2023/04/13 10:37:56;;;;;;;0.50;0.50;;;12.50;99.90;;;;;;4407012;32;20132;-76
2023/04/13 10:40:22;;;;;;;0.30;0.30;;;12.70;99.90;;;;;;4405273;32;20108;-75
2023/04/13 10:42:47;;;;;;;0.30;0.30;;;12.80;99.90;;;;;;4406206;32;20073;-76
2023/04/13 10:45:22;;;;;;;0.40;0.40;;;12.80;99.90;;;;;;4404399;32;20070;-76
2023/04/13 10:47:48;;;;;;;0.30;0.30;;;13.00;99.90;;;;;;4405621;32;20085;-76
2023/04/13 10:50:30;;;;;;;0.40;0.40;;;13.30;99.90;;;;;;4405675;32;20089;-75
2023/04/13 10:53:03;;;;;;;0.32;0.32;;;13.40;99.90;;;;;;4392710;32;20082;-75
2023/04/13 10:55:28;;;;;;;0.30;0.30;;;13.20;99.90;;;;;;4404182;32;20081;-76
2023/04/13 10:57:56;;;;;;;0.80;0.60;;;13.20;99.90;;;;;;4409023;32;20470;-76
2023/04/13 11:00:23;;;;;;;0.30;0.30;;;13.00;99.90;;;;;;4404652;32;20093;-75
2023/04/13 11:02:50;;;;;;;0.30;0.30;;;12.90;99.90;;;;;;4405811;32;20200;-76
2023/04/13 11:05:18;;;;;;;0.30;0.30;;;12.90;99.90;;;;;;4406126;32;20078;-76
2023/04/13 11:07:44;;;;;;;0.20;0.20;;;12.90;99.90;;;;;;4408385;32;20070;-75
2023/04/13 11:10:10;;;;;;;0.35;0.35;;;13.00;99.90;;;;;;4405076;32;20430;-75
2023/04/13 11:12:35;;;;;;;0.47;0.47;;;13.20;99.90;;;;;;4407015;32;20150;-76
2023/04/13 11:15:01;;;;;;;0.40;0.40;;;13.20;99.90;;;;;;4404657;32;20078;-75
2023/04/13 11:17:26;;;;;;;0.30;0.30;;;13.20;99.90;;;;;;4405841;32;20562;-75
2023/04/13 11:19:54;;;;;;;0.32;0.32;;;13.30;99.90;;;;;;4408316;32;20133;-75
2023/04/13 11:22:22;;;;;;;0.30;0.30;;;13.20;99.90;;;;;;4405618;32;20097;-75
2023/04/13 11:24:49;;;;;;;0.30;0.30;;;13.40;99.90;;;;;;4407000;32;20117;-75
2023/04/13 11:27:17;;;;;;;1.85;0.68;;;13.40;99.90;;;;;;4407453;32;20089;-75
2023/04/13 11:29:42;;;;;;;0.28;0.28;;;13.40;99.90;;;;;;4407919;32;20066;-75
2023/04/13 11:32:24;;;;;;;0.98;0.35;;;13.30;99.90;;;;;;4401044;32;20077;-75
2023/04/13 11:34:50;;;;;;;0.30;0.30;;;13.30;99.90;;;;;;4390732;32;20113;-76
2023/04/13 11:37:16;;;;;;;0.40;0.40;;;13.20;99.90;;;;;;4406661;32;20553;-75
2023/04/13 11:39:42;;;;;;;0.37;0.37;;;13.10;99.90;;;;;;4406433;32;20090;-75
2023/04/13 11:42:08;;;;;;;2.08;0.55;;;13.20;99.90;;;;;;4407674;32;20069;-75
2023/04/13 11:44:35;;;;;;;4.07;0.55;;;13.30;99.90;;;;;;4404503;32;100787;-75
2023/04/13 11:47:02;;;;;;;0.37;0.37;;;13.20;99.90;;;;;;4408011;32;20132;-75
2023/04/13 11:49:28;;;;;;;0.30;0.30;;;13.30;99.90;;;;;;4405995;32;20103;-75
2023/04/13 11:51:55;;;;;;;0.50;0.50;;;13.50;99.90;;;;;;4406674;32;20094;-75
2023/04/13 11:54:21;;;;;;;0.60;0.60;;;13.60;99.90;;;;;;4406273;32;20481;-75
2023/04/13 11:56:47;;;;;;;2.20;1.30;;;13.80;99.90;;;;;;4402424;32;20065;-75
2023/04/13 11:59:13;;;;;;;17.45;0.62;;;13.70;99.90;;;;;;4401287;32;20073;-75
2023/04/13 12:01:39;;;;;;;0.30;0.30;;;13.90;99.90;;;;;;4405740;32;21340;-75
2023/04/13 12:04:05;;;;;;;0.30;0.30;;;14.00;99.90;;;;;;4405557;32;20480;-75
2023/04/13 12:06:32;;;;;;;0.43;0.43;;;14.10;99.90;;;;;;4407192;32;20132;-75
2023/04/13 12:09:01;;;;;;;0.30;0.30;;;14.20;99.90;;;;;;4409841;32;20494;-76
2023/04/13 12:11:36;;;;;;;0.30;0.30;;;14.60;99.90;;;;;;4406281;32;20082;-75
2023/04/13 12:14:01;;;;;;;0.30;0.30;;;14.40;99.90;;;;;;4405890;32;20077;-75
2023/04/13 12:16:28;;;;;;;0.37;0.37;;;14.30;99.90;;;;;;4409068;32;20078;-75
2023/04/13 12:18:54;;;;;;;0.30;0.30;;;14.10;99.90;;;;;;4406495;32;20089;-75
2023/04/13 12:21:20;;;;;;;0.52;0.52;;;14.00;99.90;;;;;;4406629;32;20058;-75
2023/04/13 12:23:54;;;;;;;2.47;1.20;;;14.10;99.90;;;;;;4405401;32;20459;-75
2023/04/13 12:26:23;;;;;;;0.30;0.30;;;14.10;99.90;;;;;;4405122;32;20083;-75
2023/04/13 12:28:54;;;;;;;0.30;0.30;;;14.10;99.90;;;;;;4406205;32;20128;-75
2023/04/13 12:31:20;;;;;;;0.50;0.50;;;14.30;99.90;;;;;;4407352;32;20170;-75
2023/04/13 12:33:45;;;;;;;0.40;0.40;;;14.20;99.90;;;;;;4411155;32;20066;-75
2023/04/13 12:36:11;;;;;;;0.30;0.30;;;14.00;99.90;;;;;;4405376;32;20513;-74
2023/04/13 12:38:37;;;;;;;0.40;0.40;;;13.90;99.90;;;;;;4408651;32;20069;-75
2023/04/13 12:41:06;;;;;;;0.60;0.60;;;13.80;99.90;;;;;;4405069;32;20066;-75
2023/04/13 12:43:31;;;;;;;0.40;0.40;;;13.80;99.90;;;;;;4408327;32;20058;-75
2023/04/13 12:45:57;;;;;;;0.30;0.30;;;13.70;99.90;;;;;;4406698;32;20101;-75
2023/04/13 12:48:22;;;;;;;0.40;0.40;;;14.20;99.90;;;;;;4407930;32;20062;-75
2023/04/13 12:50:48;;;;;;;0.30;0.30;;;14.50;99.90;;;;;;4405547;32;20565;-75
2023/04/13 12:53:14;;;;;;;0.40;0.40;;;14.60;99.90;;;;;;4410619;32;20097;-74